NWS Home NWS Lubbock West Texas Mesonet Day over Day changes as of 0852 PM, Wed Aug 16, 2017

Latest   N   C   S   Daily Sum   3hrΔ   24hrΔ   Soil Data 
Site Map   24hr Precip   72hr Precip   Google Plot


Station Time of Last Temp Today Temp Yesterday Delta-T Dewpoint Today Dewpoint Yesterday Delta-Td Delta-Pressure (mB)
Reese Center  08:45 PM 76.9 76.8 0.1 62.2 69 -6.8 3.8
Abernathy  08:45 PM 77.6 75 2.5 65.2 69.4 -4.2 3.9
Plainview  08:45 PM 77.9 75.8 2.1 62.1 70.4 -8.3 4.3
Tahoka  08:45 PM 77.9 77.4 0.5 57.2 69.6 -12.4 3.3
Slaton  08:45 PM 81.3 77.3 3.9 55.9 67.9 -12 3.6
Levelland  08:45 PM 75 74.9 0.1 63.1 68.8 -5.8 4
Roaring Springs  08:45 PM 79.6 78.2 1.4 67 71.2 -4.2 3.1
Floydada  08:45 PM 74.5 76 -1.4 66.1 69.5 -3.5 3.6
Ralls  08:45 PM 77.3 75.1 2.1 66.1 69 -3 3.4
Brownfield  08:45 PM 81.7 77.7 4.1 52.3 67.4 -15.1 3.4
Muleshoe  08:45 PM 72.6 77.3 -4.6 62.7 66.7 -4 5
Morton  08:45 PM 74.2 76.7 -2.5 65.2 67.6 -2.4 4.5
O'Donnell  08:45 PM 82.4 77.3 5.1 53.5 66.1 -12.6 3
Seagraves  08:45 PM 83.5 76.3 7.2 52.1 65.2 -13 3.2
Amherst  08:45 PM 74.9 75.3 -0.3 63.4 68.9 -5.6 4.4
Plains  08:45 PM 78.2 75.2 2.9 58.9 69.4 -10.5 3.6
Lamesa  08:45 PM 86 77.5 8.5 54.4 70.4 -16 2.6
Hart  08:45 PM 73.9 74.4 -0.5 64.8 68.5 -3.7 5.2
Friona  08:45 PM 73.6 65.7 7.9 63.4 59.9 3.5 3.2
Dimmitt  08:45 PM 74.8 74.3 0.5 63.6 68.1 -4.5 4.8
Tulia  08:45 PM 77.2 73.6 3.6 64.5 69.7 -5.3 4.9
Silverton  08:45 PM 74.9 74.9 0 61.9 68.3 -6.4 4.2
Post  08:45 PM 80.5 81.9 -1.4 62.7 63.9 -1.2 3.6
Seminole  08:45 PM 81.6 77.6 3.9 53 62.5 -9.5 3
Gail  08:45 PM 76.9 78.2 -1.3 65.5 68 -2.5 2.1
White River Lake  08:45 PM 79.5 79.7 -0.2 62.7 66.8 -4.1 3.4
Graham  08:45 PM 82.7 79.9 2.8 60.5 65.7 -5.2 3.4
Sundown  08:45 PM 76.6 75.1 1.4 62 69.9 -7.9 3.8
Anton  08:45 PM 76.3 76.3 0 64.3 70 -5.7 4
Fluvanna  08:45 PM 75.5 77.7 -2.2 64.5 67 -2.6 2.6
Spur  08:45 PM 79.5 81.9 -2.4 62.7 65.1 -2.4 3
Northwest Lubbock  08:45 PM 81.2 78.2 3 56.9 69.3 -12.3 3.6
Guthrie  08:45 PM 80.4 81.8 -1.4 65.4 65.2 0.2 3
Clarendon  08:45 PM 75.8 75.4 0.4 68 68.5 -0.4 4.2
Paducah  08:45 PM 80.7 81.8 -1.1 69.2 67.4 1.8 3
Snyder  08:45 PM 70.9 75 -4.1 65.6 70.2 -4.6 1.8
Memphis  08:45 PM 84 81.4 2.6 64.7 68.7 -4 3.5
Jayton  08:45 PM 77.7 80.9 -3.2 67.1 66.7 0.4 2.2
Pampa  08:45 PM 74.8 76.7 -1.9 60.5 68.3 -7.7 5
Aspermont  08:45 PM 83 77.8 5.2 62.7 67.4 -4.6 1.8
Hereford  08:45 PM 75.3 72.2 3.1 55.3 56.6 -1.2 4.7
Goodlett  08:45 PM 80.5 81.2 -0.8 63.1 68.1 -5 3.1
McLean  08:45 PM 77.1 78 -0.9 62.8 67.2 -4.4 4
Denver City  08:45 PM 76.9 74 2.9 53 66.8 -13.8 3.3
Lake Alan Henry  08:45 PM 78.9 81.1 -2.3 64.7 66.3 -1.6 2.9
Wolfforth  08:45 PM 75.8 76.5 -0.7 62.8 69.3 -6.5 3.6
Andrews  08:45 PM 85.9 77.9 8 51 69 -18 2.6
Turkey  08:45 PM 81 79.7 1.4 66.5 71.1 -4.6 3.7
Childress  08:45 PM 82.6 80.9 1.7 65.8 67.9 -2.1 3.3
Tatum  08:45 PM 73.5 76 -2.5 58.1 65 -6.9 3.4
Northfield  08:45 PM 83.3 80.3 3 64.1 68.1 -4 3.1
Dora  08:45 PM 71.7 72.6 -1 59.7 63.6 -4 4.4
Northwest San Angelo  08:45 PM 86.1 77.4 8.7 66 67.4 -1.4 2.5
Saint Lawrence  08:45 PM 85.1 75.7 9.4 67.8 72.4 -4.6 1.6
Haskell  08:45 PM 89.3 78.4 10.8 67.5 68.3 -0.8 1.7
Wall  08:45 PM 83.6 76 7.5 71.5 71.7 -0.1 2.6
Seymour  08:45 PM 87.9 79.7 8.2 71.4 68.7 2.7 1.9
Knox City  08:45 PM 84.9 79.1 5.8 67.2 67.6 -0.3 2.2
Guadalupe Mtns Park  08:45 PM 75 74.1 0.8 45.9 54.9 -9 3.1
Caprock Canyons   08:45 PM 83.2 78.4 4.8 62.5 70.6 -8.1 4
Odell  08:45 PM 74.5 79.8 -5.3 70.5 71.4 -0.8 3.1
Coyanosa  08:45 PM 92.9 80.6 12.3 48.9 64.9 -16 1.7
Big Lake  08:45 PM 84.3 71.2 13.1 70.4 67.7 2.7 2.1
Junction  08:45 PM 82 89.4 -7.3 70.5 64.7 5.8 3.6
Hobbs  08:45 PM 83.6 78.6 5 48.1 65.1 -17 3
Canadian  08:45 PM 78.5 80 -1.5 62.9 67.7 -4.9 4.4
Palo Duro Canyon State Park Rim  08:45 PM 75.5 77.4 -1.9 60.2 68.4 -8.2 5.2
Bootleg  08:45 PM 70.5 67.7 2.8 58.5 57 1.6 5.9
Sterling City  08:45 PM 87 76.2 10.8 70.7 72.6 -1.9 1.6
Mertzon  08:45 PM 84.1 78.7 5.4 72.7 70.5 2.1 1.7
Persimmon Gap  08:45 PM 79.5 79.6 -0.1 60.6 67.3 -6.7 2
Weinert  05:20 PM 93.6 86.4 7.1 73.9 73.5 0.4 1
Claude 12 Southwest  08:45 PM 75.4 76.7 -1.4 64.8 68.6 -3.8 5.1
Amarillo 7 South Southeast  08:45 PM 74.5 75.9 -1.4 61.1 68.8 -7.7 5.3
Umbarger  08:45 PM 74.2 75.4 -1.2 64 68.8 -4.8 5.4
Lomax  08:45 PM 75.9 76 -0.1 67 73.5 -6.6 3.1
Amarillo 9 North Northeast  08:45 PM 75.1 77.5 -2.4 66.6 68.6 -2 6
Aiken 3 West Southwest  08:45 PM 75.7 75.1 0.7 69.5 72.5 -2.9 4.1
Sweetwater  08:45 PM 72.8 75.2 -2.4 67.2 69.3 -2.1 2.5
Dozier  08:45 PM 82.5 80 2.5 66.9 70.6 -3.7 3.3
Amarillo 15 North Northwest  08:45 PM 78.2 79.1 -0.9 59.5 68.4 -8.9 6.2
Menard  08:45 PM 77.3 75 2.3 67 72.6 -5.6 2.8
Tarzan  08:45 PM 83.4 77 6.4 65.9 71.9 -6.1 2.2
Goodnight  08:45 PM 74.9 76.2 -1.3 64.8 70.1 -5.4 4.7
Boys Ranch   08:45 PM 78 81 -3 60.2 68.6 -8.4 6.4
Fort McKavett  08:45 PM 81.7 74.3 7.4 68.2 72.9 -4.7 3
Fort Chadbourne  08:45 PM 87.6 75.9 11.8 71.8 68.2 3.6 1.6
Palo Duro Canyon State Park Floor  08:45 PM 78.5 80.9 -2.3 64.5 69.6 -5 5.1
Fort Lancaster  08:45 PM 87.6 73.2 14.4 71.9 70.4 1.5 1.7
Dell City 1N  08:45 PM 87 85.1 1.9 53.9 58.4 -4.5 3.2
Clyde  08:45 PM 84.1 75.1 9 71.8 68.2 3.6 2.7
Snyder SSW  08:45 PM 72.4 75.9 -3.6 66.9 70.5 -3.6 1.4
Panhandle  08:45 PM 75.2 75.3 -0 60.1 68.5 -8.5 5.2
Vigo Park  08:45 PM 76.5 74 2.5 62.4 69.4 -7 4.6
Welch  08:45 PM 83.4 77.4 6 53.5 69.6 -16.1 2.9
Throckmorton  08:45 PM 86.8 78.3 8.5 73.5 73.6 -0.1 1.9
Sierra Blanca  08:45 PM 85 83.9 1 46.8 54.1 -7.3 2.9
Fort Lewis CO  08:45 PM 63.3 61.3 2 33 31.6 1.4 2.2
New Home  08:45 PM 79.3 77.4 1.9 60.6 70.9 -10.3 3.4
McCamey  08:45 PM 86 72.7 13.3 69.8 67.6 2.2 2
Stamford  08:45 PM 90.1 78.5 11.6 72.4 73.9 -1.5 1.9
Crowell  08:45 PM 77.8 80.2 -2.5 73.8 71.2 2.6 2.3
Stinnett  08:45 PM 79.4 79 0.4 58.7 68.2 -9.5 5.7
Colorado City  08:45 PM 68.6 74.5 -5.9 65.8 71.3 -5.5 3.6
Happy  08:45 PM 76 74.4 1.6 63.4 68.6 -5.1 5
Olton  08:45 PM 75.3 74.9 0.4 65.1 68.9 -3.8 4.7

West Texas Mesonet Home   Site Map/Menu  NWS Lubbock Soil Data  Daily Summary Page  24hr Precip  72hr Precip  Google Plot